NCAR-RAP Real-Time Weather Data

Output produced by METARs form (30 April 2017  15:03 UTC)
found at http://weather.rap.ucar.edu/surface/
 
Conditions at: KISM observed 30 April 2017  14:56 UTC
Temperature: 27.2°C (81°F)
Dewpoint: 20.6°C (69°F) [RH = 67%]
Pressure (altimeter): 30.14 inches Hg (1020.7 mb)
[Sea-level pressure: 1020.6 mb]
Winds: from the SSE (160 degrees) at 16 MPH (14 knots; 7.3 m/s)
gusting to 21 MPH (18 knots; 9.4 m/s)
Visibility: 10 or more miles (16+ km)
Ceiling: 2800 feet AGL
Clouds: broken clouds at 2800 feet AGL
Present Weather: no significant weather observed at this time
KISM 301456Z 16014G18KT 10SM BKN028 27/21 A3014 RMK AO2 SLP206 T02720206 55006

Conditions at: KISM observed 30 April 2017  14:44 UTC
Temperature: 27.0°C (81°F)
Dewpoint: 21.0°C (70°F) [RH = 70%]
Pressure (altimeter): 30.14 inches Hg (1020.7 mb)
Winds: from the SSE (160 degrees) at 14 MPH (12 knots; 6.2 m/s)
Visibility: 10 or more miles (16+ km)
Ceiling: 2600 feet AGL
Clouds: broken clouds at 2600 feet AGL
Present Weather: no significant weather observed at this time
KISM 301444Z 16012KT 10SM BKN026 27/21 A3014 RMK AO2

Conditions at: KISM observed 30 April 2017  13:56 UTC
Temperature: 27.2°C (81°F)
Dewpoint: 21.1°C (70°F) [RH = 69%]
Pressure (altimeter): 30.13 inches Hg (1020.4 mb)
[Sea-level pressure: 1020.3 mb]
Winds: from the SE (140 degrees) at 14 MPH (12 knots; 6.2 m/s)
gusting to 22 MPH (19 knots; 9.9 m/s)
Visibility: 10 or more miles (16+ km)
Ceiling: at least 12,000 feet AGL
Clouds: scattered clouds at 1800 feet AGL
Present Weather: no significant weather observed at this time
KISM 301356Z 14012G19KT 10SM SCT018 27/21 A3013 RMK AO2 SLP203 T02720211

Conditions at: KISM observed 30 April 2017  12:56 UTC
Temperature: 25.0°C (77°F)
Dewpoint: 21.7°C (71°F) [RH = 82%]
Pressure (altimeter): 30.14 inches Hg (1020.7 mb)
[Sea-level pressure: 1020.7 mb]
Winds: from the SSE (150 degrees) at 12 MPH (10 knots; 5.2 m/s)
Visibility: 10 or more miles (16+ km)
Ceiling: at least 12,000 feet AGL
Clouds: sky clear below 12,000 feet AGL
Present Weather: no significant weather observed at this time
KISM 301256Z 15010KT 10SM CLR 25/22 A3014 RMK AO2 SLP207 T02500217

Conditions at: KISM observed 30 April 2017  11:56 UTC
Temperature: 23.3°C (74°F)
Dewpoint: 21.7°C (71°F) [RH = 91%]
Pressure (altimeter): 30.15 inches Hg (1021.1 mb)
[Sea-level pressure: 1021.2 mb]
Winds: from the ESE (120 degrees) at 6 MPH (5 knots; 2.6 m/s)
Visibility: 10 or more miles (16+ km)
Ceiling: at least 12,000 feet AGL
Clouds: sky clear below 12,000 feet AGL
Present Weather: no significant weather observed at this time
KISM 301156Z 12005KT 10SM CLR 23/22 A3015 RMK AO2 SLP212 T02330217 10239 20228 53013

Conditions at: KISM observed 30 April 2017  10:56 UTC
Temperature: 22.8°C (73°F)
Dewpoint: 21.1°C (70°F) [RH = 90%]
Pressure (altimeter): 30.14 inches Hg (1020.7 mb)
[Sea-level pressure: 1020.7 mb]
Winds: from the ESE (120 degrees) at 5 MPH (4 knots; 2.1 m/s)
Visibility: 10 or more miles (16+ km)
Ceiling: at least 12,000 feet AGL
Clouds: sky clear below 12,000 feet AGL
Present Weather: no significant weather observed at this time
KISM 301056Z 12004KT 10SM CLR 23/21 A3014 RMK AO2 SLP207 T02280211

Conditions at: KISM observed 30 April 2017  09:56 UTC
Temperature: 22.8°C (73°F)
Dewpoint: 21.7°C (71°F) [RH = 94%]
Pressure (altimeter): 30.12 inches Hg (1020.1 mb)
[Sea-level pressure: 1020.1 mb]
Winds: from the ESE (120 degrees) at 7 MPH (6 knots; 3.1 m/s)
Visibility: 10 or more miles (16+ km)
Ceiling: at least 12,000 feet AGL
Clouds: sky clear below 12,000 feet AGL
Present Weather: automated observation with no human augmentation;
there may or may not be significant weather present at this time
KISM 300956Z AUTO 12006KT 10SM CLR 23/22 A3012 RMK AO2 SLP201 T02280217

Conditions at: KISM observed 30 April 2017  08:56 UTC
Temperature: 23.3°C (74°F)
Dewpoint: 21.7°C (71°F) [RH = 91%]
Pressure (altimeter): 30.11 inches Hg (1019.7 mb)
[Sea-level pressure: 1019.9 mb]
Winds: from the SE (130 degrees) at 6 MPH (5 knots; 2.6 m/s)
Visibility: 10 or more miles (16+ km)
Ceiling: at least 12,000 feet AGL
Clouds: sky clear below 12,000 feet AGL
Present Weather: automated observation with no human augmentation;
there may or may not be significant weather present at this time
KISM 300856Z AUTO 13005KT 10SM CLR 23/22 A3011 RMK AO2 SLP199 T02330217 55003

Conditions at: KISM observed 30 April 2017  08:30 UTC
Temperature: 23.0°C (73°F)
Dewpoint: 22.0°C (72°F) [RH = 94%]
Pressure (altimeter): 30.12 inches Hg (1020.1 mb)
Winds: from the ESE (120 degrees) at 7 MPH (6 knots; 3.1 m/s)
Visibility: 10 or more miles (16+ km)
Ceiling: at least 12,000 feet AGL
Clouds: scattered clouds at 1800 feet AGL
Present Weather: automated observation with no human augmentation;
there may or may not be significant weather present at this time
KISM 300830Z AUTO 12006KT 10SM SCT018 23/22 A3012 RMK AO2

Conditions at: KISM observed 30 April 2017  07:56 UTC
Temperature: 23.3°C (74°F)
Dewpoint: 21.7°C (71°F) [RH = 91%]
Pressure (altimeter): 30.11 inches Hg (1019.7 mb)
[Sea-level pressure: 1019.6 mb]
Winds: from the ESE (120 degrees) at 8 MPH (7 knots; 3.6 m/s)
Visibility: 10 or more miles (16+ km)
Ceiling: 2100 feet AGL
Clouds: scattered clouds at 1400 feet AGL
broken clouds at 2100 feet AGL
Present Weather: automated observation with no human augmentation;
there may or may not be significant weather present at this time
KISM 300756Z AUTO 12007KT 10SM SCT014 BKN021 23/22 A3011 RMK AO2 SLP196 T02330217

Conditions at: KISM observed 30 April 2017  06:56 UTC
Temperature: 23.3°C (74°F)
Dewpoint: 21.7°C (71°F) [RH = 91%]
Pressure (altimeter): 30.11 inches Hg (1019.7 mb)
[Sea-level pressure: 1019.6 mb]
Winds: from the ESE (120 degrees) at 9 MPH (8 knots; 4.2 m/s)
Visibility: 10 or more miles (16+ km)
Ceiling: at least 12,000 feet AGL
Clouds: scattered clouds at 2000 feet AGL
Present Weather: automated observation with no human augmentation;
there may or may not be significant weather present at this time
KISM 300656Z AUTO 12008KT 10SM SCT020 23/22 A3011 RMK AO2 SLP196 T02330217

Conditions at: KISM observed 30 April 2017  05:56 UTC
Temperature: 23.3°C (74°F)
Dewpoint: 21.7°C (71°F) [RH = 91%]
Pressure (altimeter): 30.13 inches Hg (1020.4 mb)
[Sea-level pressure: 1020.2 mb]
Winds: from the ESE (120 degrees) at 8 MPH (7 knots; 3.6 m/s)
Visibility: 10 or more miles (16+ km)
Ceiling: at least 12,000 feet AGL
Clouds: few clouds at 2200 feet AGL
Present Weather: automated observation with no human augmentation;
there may or may not be significant weather present at this time
KISM 300556Z AUTO 12007KT 10SM FEW022 23/22 A3013 RMK AO2 SLP202 T02330217 10272 20233 58009

Conditions at: KISM observed 30 April 2017  04:56 UTC
Temperature: 23.9°C (75°F)
Dewpoint: 21.7°C (71°F) [RH = 88%]
Pressure (altimeter): 30.14 inches Hg (1020.7 mb)
[Sea-level pressure: 1020.6 mb]
Winds: from the SE (130 degrees) at 7 MPH (6 knots; 3.1 m/s)
Visibility: 10 or more miles (16+ km)
Ceiling: at least 12,000 feet AGL
Clouds: sky clear below 12,000 feet AGL
Present Weather: automated observation with no human augmentation;
there may or may not be significant weather present at this time
KISM 300456Z AUTO 13006KT 10SM CLR 24/22 A3014 RMK AO2 SLP206 T02390217 403390233

Conditions at: KISM observed 30 April 2017  03:56 UTC
Temperature: 23.9°C (75°F)
Dewpoint: 21.7°C (71°F) [RH = 88%]
Pressure (altimeter): 30.15 inches Hg (1021.1 mb)
[Sea-level pressure: 1021.0 mb]
Winds: from the ESE (120 degrees) at 10 MPH (9 knots; 4.7 m/s)
Visibility: 10 or more miles (16+ km)
Ceiling: at least 12,000 feet AGL
Clouds: few clouds at 2000 feet AGL
Present Weather: automated observation with no human augmentation;
there may or may not be significant weather present at this time
KISM 300356Z AUTO 12009KT 10SM FEW020 24/22 A3015 RMK AO2 SLP210 T02390217

Conditions at: KISM observed 30 April 2017  02:56 UTC
Temperature: 24.4°C (76°F)
Dewpoint: 21.1°C (70°F) [RH = 82%]
Pressure (altimeter): 30.15 inches Hg (1021.1 mb)
[Sea-level pressure: 1021.1 mb]
Winds: from the ESE (120 degrees) at 7 MPH (6 knots; 3.1 m/s)
Visibility: 10 or more miles (16+ km)
Ceiling: at least 12,000 feet AGL
Clouds: sky clear below 12,000 feet AGL
Present Weather: automated observation with no human augmentation;
there may or may not be significant weather present at this time
KISM 300256Z AUTO 12006KT 10SM CLR 24/21 A3015 RMK AO2 SLP211 T02440211 51015

Conditions at: KISM observed 30 April 2017  01:56 UTC
Temperature: 25.0°C (77°F)
Dewpoint: 21.7°C (71°F) [RH = 82%]
Pressure (altimeter): 30.14 inches Hg (1020.7 mb)
[Sea-level pressure: 1020.7 mb]
Winds: from the ESE (110 degrees) at 13 MPH (11 knots; 5.7 m/s)
gusting to 17 MPH (15 knots; 7.8 m/s)
Visibility: 10 or more miles (16+ km)
Ceiling: at least 12,000 feet AGL
Clouds: sky clear below 12,000 feet AGL
Present Weather: no significant weather observed at this time
KISM 300156Z 11011G15KT 10SM CLR 25/22 A3014 RMK AO2 SLP207 T02500217

Conditions at: KISM observed 30 April 2017  00:56 UTC
Temperature: 26.1°C (79°F)
Dewpoint: 21.1°C (70°F) [RH = 74%]
Pressure (altimeter): 30.13 inches Hg (1020.4 mb)
[Sea-level pressure: 1020.3 mb]
Winds: from the ESE (110 degrees) at 15 MPH (13 knots; 6.8 m/s)
gusting to 20 MPH (17 knots; 8.8 m/s)
Visibility: 10 or more miles (16+ km)
Ceiling: at least 12,000 feet AGL
Clouds: sky clear below 12,000 feet AGL
Present Weather: no significant weather observed at this time
KISM 300056Z 11013G17KT 10SM CLR 26/21 A3013 RMK AO2 SLP203 T02610211

Conditions at: KISM observed 29 April 2017  23:56 UTC
Temperature: 27.2°C (81°F)
Dewpoint: 20.6°C (69°F) [RH = 67%]
Pressure (altimeter): 30.11 inches Hg (1019.7 mb)
[Sea-level pressure: 1019.6 mb]
Winds: from the ESE (110 degrees) at 15 MPH (13 knots; 6.8 m/s)
Visibility: 10 or more miles (16+ km)
Ceiling: at least 12,000 feet AGL
Clouds: sky clear below 12,000 feet AGL
Present Weather: no significant weather observed at this time
KISM 292356Z 11013KT 10SM CLR 27/21 A3011 RMK AO2 SLP196 T02720206 10339 20272 53004

Conditions at: KISM observed 29 April 2017  22:56 UTC
Temperature: 30.0°C (86°F)
Dewpoint: 19.4°C (67°F) [RH = 53%]
Pressure (altimeter): 30.10 inches Hg (1019.4 mb)
[Sea-level pressure: 1019.3 mb]
Winds: from the SE (130 degrees) at 16 MPH (14 knots; 7.3 m/s)
gusting to 21 MPH (18 knots; 9.4 m/s)
Visibility: 10 or more miles (16+ km)
Ceiling: 5000 feet AGL
Clouds: broken clouds at 5000 feet AGL
Present Weather: no significant weather observed at this time
KISM 292256Z 13014G18KT 10SM BKN050 30/19 A3010 RMK AO2 SLP193 T03000194

Conditions at: KISM observed 29 April 2017  21:56 UTC
Temperature: 31.7°C (89°F)
Dewpoint: 18.9°C (66°F) [RH = 47%]
Pressure (altimeter): 30.10 inches Hg (1019.4 mb)
[Sea-level pressure: 1019.3 mb]
Winds: from the ESE (110 degrees) at 15 MPH (13 knots; 6.8 m/s)
Visibility: 10 or more miles (16+ km)
Ceiling: at least 12,000 feet AGL
Clouds: sky clear below 12,000 feet AGL
Present Weather: no significant weather observed at this time
KISM 292156Z 11013KT 10SM CLR 32/19 A3010 RMK AO2 SLP193 T03170189

Conditions at: KISM observed 29 April 2017  20:56 UTC
Temperature: 32.8°C (91°F)
Dewpoint: 17.8°C (64°F) [RH = 41%]
Pressure (altimeter): 30.09 inches Hg (1019.0 mb)
[Sea-level pressure: 1019.1 mb]
Winds: from the ESE (110 degrees) at 15 MPH (13 knots; 6.8 m/s)
Visibility: 10 or more miles (16+ km)
Ceiling: at least 12,000 feet AGL
Clouds: sky clear below 12,000 feet AGL
Present Weather: no significant weather observed at this time
KISM 292056Z 11013KT 10SM CLR 33/18 A3009 RMK AO2 SLP191 T03280178 56014

Conditions at: KISM observed 29 April 2017  19:56 UTC
Temperature: 32.8°C (91°F)
Dewpoint: 17.2°C (63°F) [RH = 39%]
Pressure (altimeter): 30.10 inches Hg (1019.4 mb)
[Sea-level pressure: 1019.3 mb]
Winds: from the ESE (120 degrees) at 13 MPH (11 knots; 5.7 m/s)
gusting to 23 MPH (20 knots; 10.4 m/s)
Visibility: 10 or more miles (16+ km)
Ceiling: at least 12,000 feet AGL
Clouds: few clouds at 6500 feet AGL
Present Weather: no significant weather observed at this time
KISM 291956Z 12011G20KT 10SM FEW065 33/17 A3010 RMK AO2 SLP193 T03280172

Conditions at: KISM observed 29 April 2017  18:56 UTC
Temperature: 33.3°C (92°F)
Dewpoint: 18.3°C (65°F) [RH = 41%]
Pressure (altimeter): 30.12 inches Hg (1020.1 mb)
[Sea-level pressure: 1020.0 mb]
Winds: from the ESE (120 degrees) at 13 MPH (11 knots; 5.7 m/s)
gusting to 21 MPH (18 knots; 9.4 m/s)
Visibility: 10 or more miles (16+ km)
Ceiling: at least 12,000 feet AGL
Clouds: scattered clouds at 6000 feet AGL
Present Weather: no significant weather observed at this time
KISM 291856Z 12011G18KT 10SM SCT060 33/18 A3012 RMK AO2 SLP200 T03330183

Conditions at: KISM observed 29 April 2017  17:56 UTC
Temperature: 33.3°C (92°F)
Dewpoint: 18.3°C (65°F) [RH = 41%]
Pressure (altimeter): 30.13 inches Hg (1020.4 mb)
[Sea-level pressure: 1020.5 mb]
Winds: from the ESE (120 degrees) at 14 MPH (12 knots; 6.2 m/s)
gusting to 23 MPH (20 knots; 10.4 m/s)
Visibility: 10 or more miles (16+ km)
Ceiling: at least 12,000 feet AGL
Clouds: few clouds at 6000 feet AGL
Present Weather: no significant weather observed at this time
KISM 291756Z 12012G20KT 10SM FEW060 33/18 A3013 RMK AO2 SLP205 T03330183 10333 20244 58014

Conditions at: KISM observed 29 April 2017  16:56 UTC
Temperature: 32.2°C (90°F)
Dewpoint: 18.9°C (66°F) [RH = 45%]
Pressure (altimeter): 30.15 inches Hg (1021.1 mb)
[Sea-level pressure: 1021.2 mb]
Winds: from the ESE (110 degrees) at 13 MPH (11 knots; 5.7 m/s)
Visibility: 10 or more miles (16+ km)
Ceiling: at least 12,000 feet AGL
Clouds: scattered clouds at 5500 feet AGL
Present Weather: no significant weather observed at this time
KISM 291656Z 11011KT 10SM SCT055 32/19 A3015 RMK AO2 SLP212 T03220189

Conditions at: KISM observed 29 April 2017  16:03 UTC
Temperature: 31.0°C (88°F)
Dewpoint: 19.0°C (66°F) [RH = 49%]
Pressure (altimeter): 30.16 inches Hg (1021.4 mb)
Winds: from the ESE (120 degrees) at 18 MPH (16 knots; 8.3 m/s)
gusting to 22 MPH (19 knots; 9.9 m/s)
Visibility: 10 or more miles (16+ km)
Ceiling: at least 12,000 feet AGL
Clouds: few clouds at 200 feet AGL
Present Weather: no significant weather observed at this time
KISM 291603Z 12016G19KT 10SM FEW002 31/19 A3016 RMK AO2

Conditions at: KISM observed 29 April 2017  15:56 UTC
Temperature: 30.0°C (86°F)
Dewpoint: 18.9°C (66°F) [RH = 51%]
Pressure (altimeter): 30.17 inches Hg (1021.8 mb)
[Sea-level pressure: 1021.7 mb]
Winds: from the ESE (120 degrees) at 15 MPH (13 knots; 6.8 m/s)
gusting to 20 MPH (17 knots; 8.8 m/s)
Visibility: 10 or more miles (16+ km)
Ceiling: at least 12,000 feet AGL
Clouds: scattered clouds at 2500 feet AGL
Present Weather: no significant weather observed at this time
KISM 291556Z 12013G17KT 10SM SCT025 30/19 A3017 RMK AO2 SLP217 T03000189

Conditions at: KISM observed 29 April 2017  13:56 UTC
Temperature: 28.3°C (83°F)
Dewpoint: 21.1°C (70°F) [RH = 65%]
Pressure (altimeter): 30.17 inches Hg (1021.8 mb)
[Sea-level pressure: 1021.6 mb]
Winds: from the SE (140 degrees) at 16 MPH (14 knots; 7.3 m/s)
gusting to 21 MPH (18 knots; 9.4 m/s)
Visibility: 10 or more miles (16+ km)
Ceiling: at least 12,000 feet AGL
Clouds: sky clear below 12,000 feet AGL
Present Weather: no significant weather observed at this time
KISM 291356Z 14014G18KT 10SM CLR 28/21 A3017 RMK AO2 SLP216 T02830211

Conditions at: KISM observed 29 April 2017  12:56 UTC
Temperature: 26.1°C (79°F)
Dewpoint: 21.7°C (71°F) [RH = 77%]
Pressure (altimeter): 30.16 inches Hg (1021.4 mb)
[Sea-level pressure: 1021.5 mb]
Winds: from the SE (140 degrees) at 14 MPH (12 knots; 6.2 m/s)
Visibility: 10 or more miles (16+ km)
Ceiling: at least 12,000 feet AGL
Clouds: sky clear below 12,000 feet AGL
Present Weather: no significant weather observed at this time
KISM 291256Z 14012KT 10SM CLR 26/22 A3016 RMK AO2 SLP215 T02610217

Conditions at: KISM observed 29 April 2017  11:56 UTC
Temperature: 24.4°C (76°F)
Dewpoint: 22.2°C (72°F) [RH = 88%]
Pressure (altimeter): 30.16 inches Hg (1021.4 mb)
[Sea-level pressure: 1021.4 mb]
Winds: from the SE (130 degrees) at 10 MPH (9 knots; 4.7 m/s)
Visibility: 10 or more miles (16+ km)
Ceiling: at least 12,000 feet AGL
Clouds: sky clear below 12,000 feet AGL
Present Weather: no significant weather observed at this time
KISM 291156Z 13009KT 10SM CLR 24/22 A3016 RMK AO2 SLP214 T02440222 10244 20233 53013

Conditions at: KISM observed 29 April 2017  11:28 UTC
Temperature: 24.0°C (75°F)
Dewpoint: 22.0°C (72°F) [RH = 89%]
Pressure (altimeter): 30.16 inches Hg (1021.4 mb)
Winds: from the SE (130 degrees) at 8 MPH (7 knots; 3.6 m/s)
Visibility: 10 or more miles (16+ km)
Ceiling: at least 12,000 feet AGL
Clouds: scattered clouds at 700 feet AGL
Present Weather: no significant weather observed at this time
KISM 291128Z 13007KT 10SM SCT007 24/22 A3016 RMK AO2

Conditions at: KISM observed 29 April 2017  10:56 UTC
Temperature: 23.3°C (74°F)
Dewpoint: 22.2°C (72°F) [RH = 94%]
Pressure (altimeter): 30.14 inches Hg (1020.7 mb)
[Sea-level pressure: 1020.8 mb]
Winds: from the ESE (120 degrees) at 8 MPH (7 knots; 3.6 m/s)
Visibility: 10 or more miles (16+ km)
Ceiling: at least 12,000 feet AGL
Clouds: sky clear below 12,000 feet AGL
Present Weather: no significant weather observed at this time
KISM 291056Z 12007KT 10SM CLR 23/22 A3014 RMK AO2 SLP208 T02330222

Conditions at: KISM observed 29 April 2017  09:56 UTC
Temperature: 23.3°C (74°F)
Dewpoint: 22.2°C (72°F) [RH = 94%]
Pressure (altimeter): 30.12 inches Hg (1020.1 mb)
[Sea-level pressure: 1020.2 mb]
Winds: from the ESE (120 degrees) at 9 MPH (8 knots; 4.2 m/s)
Visibility: 10 or more miles (16+ km)
Ceiling: at least 12,000 feet AGL
Clouds: sky clear below 12,000 feet AGL
Present Weather: automated observation with no human augmentation;
there may or may not be significant weather present at this time
KISM 290956Z AUTO 12008KT 10SM CLR 23/22 A3012 RMK AO2 SLP202 T02330222

Conditions at: KISM observed 29 April 2017  08:56 UTC
Temperature: 23.3°C (74°F)
Dewpoint: 22.8°C (73°F) [RH = 97%]
Pressure (altimeter): 30.12 inches Hg (1020.1 mb)
[Sea-level pressure: 1020.0 mb]
Winds: from the ESE (120 degrees) at 8 MPH (7 knots; 3.6 m/s)
Visibility: 10 or more miles (16+ km)
Ceiling: at least 12,000 feet AGL
Clouds: sky clear below 12,000 feet AGL
Present Weather: automated observation with no human augmentation;
there may or may not be significant weather present at this time
KISM 290856Z AUTO 12007KT 10SM CLR 23/23 A3012 RMK AO2 SLP200 T02330228 56004

Conditions at: KISM observed 29 April 2017  07:56 UTC
Temperature: 23.9°C (75°F)
Dewpoint: 22.8°C (73°F) [RH = 94%]
Pressure (altimeter): 30.12 inches Hg (1020.1 mb)
[Sea-level pressure: 1020.1 mb]
Winds: from the SE (130 degrees) at 7 MPH (6 knots; 3.1 m/s)
Visibility: 10 or more miles (16+ km)
Ceiling: at least 12,000 feet AGL
Clouds: sky clear below 12,000 feet AGL
Present Weather: automated observation with no human augmentation;
there may or may not be significant weather present at this time
KISM 290756Z AUTO 13006KT 10SM CLR 24/23 A3012 RMK AO2 SLP201 T02390228

Conditions at: KISM observed 29 April 2017  06:56 UTC
Temperature: 23.9°C (75°F)
Dewpoint: 22.8°C (73°F) [RH = 94%]
Pressure (altimeter): 30.13 inches Hg (1020.4 mb)
[Sea-level pressure: 1020.2 mb]
Winds: from the ESE (120 degrees) at 7 MPH (6 knots; 3.1 m/s)
Visibility: 10 or more miles (16+ km)
Ceiling: at least 12,000 feet AGL
Clouds: sky clear below 12,000 feet AGL
Present Weather: automated observation with no human augmentation;
there may or may not be significant weather present at this time
KISM 290656Z AUTO 12006KT 10SM CLR 24/23 A3013 RMK AO2 SLP202 T02390228

Conditions at: KISM observed 29 April 2017  05:56 UTC
Temperature: 23.9°C (75°F)
Dewpoint: 22.2°C (72°F) [RH = 90%]
Pressure (altimeter): 30.13 inches Hg (1020.4 mb)
[Sea-level pressure: 1020.5 mb]
Winds: from the ESE (120 degrees) at 8 MPH (7 knots; 3.6 m/s)
Visibility: 10 or more miles (16+ km)
Ceiling: at least 12,000 feet AGL
Clouds: sky clear below 12,000 feet AGL
Present Weather: automated observation with no human augmentation;
there may or may not be significant weather present at this time
KISM 290556Z AUTO 12007KT 10SM CLR 24/22 A3013 RMK AO2 SLP205 T02390222 10294 20239 50001

Conditions at: KISM observed 29 April 2017  04:56 UTC
Temperature: 23.9°C (75°F)
Dewpoint: 22.2°C (72°F) [RH = 90%]
Pressure (altimeter): 30.14 inches Hg (1020.7 mb)
[Sea-level pressure: 1020.8 mb]
Winds: from the SE (140 degrees) at 6 MPH (5 knots; 2.6 m/s)
Visibility: 10 or more miles (16+ km)
Ceiling: at least 12,000 feet AGL
Clouds: sky clear below 12,000 feet AGL
Present Weather: automated observation with no human augmentation;
there may or may not be significant weather present at this time
KISM 290456Z AUTO 14005KT 10SM CLR 24/22 A3014 RMK AO2 SLP208 T02390222 403560206

Conditions at: KISM observed 29 April 2017  03:56 UTC
Temperature: 24.4°C (76°F)
Dewpoint: 21.7°C (71°F) [RH = 85%]
Pressure (altimeter): 30.14 inches Hg (1020.7 mb)
[Sea-level pressure: 1020.6 mb]
Winds: from the ESE (120 degrees) at 8 MPH (7 knots; 3.6 m/s)
Visibility: 10 or more miles (16+ km)
Ceiling: at least 12,000 feet AGL
Clouds: sky clear below 12,000 feet AGL
Present Weather: automated observation with no human augmentation;
there may or may not be significant weather present at this time
KISM 290356Z AUTO 12007KT 10SM CLR 24/22 A3014 RMK AO2 SLP206 T02440217

Conditions at: KISM observed 29 April 2017  02:56 UTC
Temperature: 25.6°C (78°F)
Dewpoint: 21.7°C (71°F) [RH = 79%]
Pressure (altimeter): 30.13 inches Hg (1020.4 mb)
[Sea-level pressure: 1020.4 mb]
Winds: from the SE (140 degrees) at 8 MPH (7 knots; 3.6 m/s)
Visibility: 10 or more miles (16+ km)
Ceiling: at least 12,000 feet AGL
Clouds: sky clear below 12,000 feet AGL
Present Weather: automated observation with no human augmentation;
there may or may not be significant weather present at this time
KISM 290256Z AUTO 14007KT 10SM CLR 26/22 A3013 RMK AO2 SLP204 T02560217 51020

Conditions at: KISM observed 29 April 2017  01:56 UTC
Temperature: 26.7°C (80°F)
Dewpoint: 21.1°C (70°F) [RH = 71%]
Pressure (altimeter): 30.12 inches Hg (1020.1 mb)
[Sea-level pressure: 1020.0 mb]
Winds: from the SE (130 degrees) at 10 MPH (9 knots; 4.7 m/s)
Visibility: 10 or more miles (16+ km)
Ceiling: at least 12,000 feet AGL
Clouds: sky clear below 12,000 feet AGL
Present Weather: automated observation with no human augmentation;
there may or may not be significant weather present at this time
KISM 290156Z AUTO 13009KT 10SM CLR 27/21 A3012 RMK AO2 SLP200 T02670211

Conditions at: KISM observed 29 April 2017  00:56 UTC
Temperature: 27.8°C (82°F)
Dewpoint: 20.0°C (68°F) [RH = 63%]
Pressure (altimeter): 30.09 inches Hg (1019.0 mb)
[Sea-level pressure: 1018.9 mb]
Winds: from the ESE (120 degrees) at 9 MPH (8 knots; 4.2 m/s)
Visibility: 10 or more miles (16+ km)
Ceiling: at least 12,000 feet AGL
Clouds: sky clear below 12,000 feet AGL
Present Weather: no significant weather observed at this time
KISM 290056Z 12008KT 10SM CLR 28/20 A3009 RMK AO2 SLP189 T02780200

Conditions at: KISM observed 28 April 2017  23:56 UTC
Temperature: 29.4°C (85°F)
Dewpoint: 19.4°C (67°F) [RH = 55%]
Pressure (altimeter): 30.07 inches Hg (1018.4 mb)
[Sea-level pressure: 1018.3 mb]
Winds: from the ESE (120 degrees) at 10 MPH (9 knots; 4.7 m/s)
Visibility: 10 or more miles (16+ km)
Ceiling: at least 12,000 feet AGL
Clouds: sky clear below 12,000 feet AGL
Present Weather: no significant weather observed at this time
KISM 282356Z 12009KT 10SM CLR 29/19 A3007 RMK AO2 SLP183 T02940194 10356 20294 53013

Conditions at: KISM observed 28 April 2017  21:56 UTC
Temperature: 33.3°C (92°F)
Dewpoint: 20.0°C (68°F) [RH = 46%]
Pressure (altimeter): 30.04 inches Hg (1017.4 mb)
[Sea-level pressure: 1017.3 mb]
Winds: from the SE (130 degrees) at 15 MPH (13 knots; 6.8 m/s)
gusting to 22 MPH (19 knots; 9.9 m/s)
Visibility: 10 or more miles (16+ km)
Ceiling: at least 12,000 feet AGL
Clouds: few clouds at 6500 feet AGL
Present Weather: no significant weather observed at this time
KISM 282156Z 13013G19KT 10SM FEW065 33/20 A3004 RMK AO2 SLP173 T03330200

Conditions at: KISM observed 28 April 2017  20:56 UTC
Temperature: 33.3°C (92°F)
Dewpoint: 20.6°C (69°F) [RH = 47%]
Pressure (altimeter): 30.03 inches Hg (1017.0 mb)
[Sea-level pressure: 1017.0 mb]
Winds: from the ESE (110 degrees) at 15 MPH (13 knots; 6.8 m/s)
Visibility: 10 or more miles (16+ km)
Ceiling: at least 12,000 feet AGL
Clouds: scattered clouds at 7000 feet AGL
Present Weather: no significant weather observed at this time
KISM 282056Z 11013KT 10SM SCT070 33/21 A3003 RMK AO2 SLP170 T03330206 56013

Conditions at: KISM observed 28 April 2017  19:56 UTC
Temperature: 35.0°C (95°F)
Dewpoint: 16.7°C (62°F) [RH = 34%]
Pressure (altimeter): 30.04 inches Hg (1017.4 mb)
[Sea-level pressure: 1017.3 mb]
Winds: variable direction winds at 7 MPH (6 knots; 3.1 m/s)
Visibility: 10 or more miles (16+ km)
Ceiling: at least 12,000 feet AGL
Clouds: sky clear below 12,000 feet AGL
Present Weather: no significant weather observed at this time
KISM 281956Z VRB06KT 10SM CLR 35/17 A3004 RMK AO2 SLP173 T03500167

Conditions at: KISM observed 28 April 2017  18:56 UTC
Temperature: 34.4°C (94°F)
Dewpoint: 19.4°C (67°F) [RH = 41%]
Pressure (altimeter): 30.06 inches Hg (1018.0 mb)
[Sea-level pressure: 1017.9 mb]
Winds: from the S (190 degrees) at 9 MPH (8 knots; 4.2 m/s)
gusting to 20 MPH (17 knots; 8.8 m/s)
Visibility: 10 or more miles (16+ km)
Ceiling: at least 12,000 feet AGL
Clouds: scattered clouds at 6000 feet AGL
Present Weather: no significant weather observed at this time
KISM 281856Z 19008G17KT 10SM SCT060 34/19 A3006 RMK AO2 SLP179 T03440194

Conditions at: KISM observed 28 April 2017  17:56 UTC
Temperature: 33.3°C (92°F)
Dewpoint: 20.6°C (69°F) [RH = 47%]
Pressure (altimeter): 30.07 inches Hg (1018.4 mb)
[Sea-level pressure: 1018.3 mb]
Winds: from the SSE (160 degrees) at 14 MPH (12 knots; 6.2 m/s)
Visibility: 10 or more miles (16+ km)
Ceiling: at least 12,000 feet AGL
Clouds: sky clear below 12,000 feet AGL
Present Weather: no significant weather observed at this time
KISM 281756Z 16012KT 10SM CLR 33/21 A3007 RMK AO2 SLP183 T03330206 10333 20239 58013

Conditions at: KISM observed 28 April 2017  16:56 UTC
Temperature: 32.2°C (90°F)
Dewpoint: 20.6°C (69°F) [RH = 50%]
Pressure (altimeter): 30.08 inches Hg (1018.7 mb)
[Sea-level pressure: 1018.8 mb]
Winds: from the S (170 degrees) at 8 MPH (7 knots; 3.6 m/s)
gusting to 18 MPH (16 knots; 8.3 m/s)
Visibility: 10 or more miles (16+ km)
Ceiling: at least 12,000 feet AGL
Clouds: sky clear below 12,000 feet AGL
Present Weather: no significant weather observed at this time
KISM 281656Z 17007G16KT 10SM CLR 32/21 A3008 RMK AO2 SLP188 T03220206

Conditions at: KISM observed 28 April 2017  15:56 UTC
Temperature: 31.1°C (88°F)
Dewpoint: 22.2°C (72°F) [RH = 59%]
Pressure (altimeter): 30.10 inches Hg (1019.4 mb)
[Sea-level pressure: 1019.4 mb]
Winds: from the S (180 degrees) at 13 MPH (11 knots; 5.7 m/s)
Visibility: 10 or more miles (16+ km)
Ceiling: at least 12,000 feet AGL
Clouds: sky clear below 12,000 feet AGL
Present Weather: no significant weather observed at this time
KISM 281556Z 18011KT 10SM CLR 31/22 A3010 RMK AO2 SLP194 T03110222